Jellico, TN

4:49 AM EDT on July 13, 2014 (GMT -0400)
Mackey Bend (KKYBARBO4) Elev 981 ft | 36.81 °N, 83.96 °W | Change Station

Current weather conditions updated 17 seconds ago

Clear
Clear
63.9 °F
Feels Like 63.9 °F
N
0.0
Wind Variable Wind from East
Gusts 0.0 mph

Today is forecast to be Cooler than yesterday.

Today
High -- | Low -- °F
--% Chance of Precip.
Yesterday
High -- | Low -- °F
Precip. -- in
6:28 AM 8:55 PM
Full, 99% visible
Pressure 30.12 in
Visibility 10.0 miles
Clouds Clear
Dew Point 64 °F
Humidity 99%
Rainfall 0.00 in
Snow Depth Not available.
UV 0 out of 12
Pollen 3.70 out of 12
Air Quality Not available.
Flu Activity No Activity
METAR K1A6 130835Z AUTO 00000KT 10SM CLR 19/18 A3012 RMK AO2 T01850178

More Conditions Fewer Conditions

Pressure 30.12 in
Visibility 10.0 miles
Clouds Clear
Dew Point 64 °F
Humidity 99%
Rainfall 0.00 in
Snow Depth Not available.
UV 0 out of 12
Pollen 3.70 out of 12
Air Quality Not available.
Flu Activity No Activity
METAR K1A6 130835Z AUTO 00000KT 10SM CLR 19/18 A3012 RMK AO2 T01850178

More Conditions Fewer Conditions

10-Day Weather Forecast

Almanac

Astronomy

Jul. 13, 2014 Rise Set
Actual Time 6:28 AM EDT 8:55 PM EDT
Civil Twilight 5:58 AM EDT 9:25 PM EDT
Nautical Twilight 5:21 AM EDT 10:02 PM EDT
Astronomical Twilight 4:40 AM EDT 10:43 PM EDT
Moon 9:48 PM EDT 7:54 AM EDT
Length of Visible Light 15h 27m
Length of Day
14h 27m
Tomorrow will be 1m 6s shorter.
Full, 99% of the Moon is Illuminated
Today
Full
Jul 18
Last Quarter
Jul 26
New
Aug 3
First Quarter
Aug 10
Full

Today's Extremes

State Highs State Lows

Community

WunderPhotos

Upload Photos

1,733,143 photos uploaded!

Nearby

Snow Depth

Station Depth Elevation
No new snow has been reported.

Earthquake Activity

City Distance Mag. Time & Date
No recent earthquake activity has been reported nearby.
Minimum magnitude displayed is 2.5.

Coastal Water Temperatures

Place Temperature
No Stations Reporting

Nearby Weather Stations

Station Location Temp. Heat Index Dew Point Humidity Wind Precip. Elev Updated Type
Mackey Bend, Barbourville, KY 63.9 °F - 64 °F 99% East  at  0.0 mph 0.00 in / hr 981 ft 4:48 AM EDT Rapid Fire
RAWS CHUCK SWAN SF TN, Sharps Chapel, TN 73 °F 73 °F 67 °F 81% SSW  at  4 mph 0.00 in / hr 1657 ft 4:05 AM EDT MADIS
liford's, Barbourville, KY 65.7 °F - 65 °F 99% ESE  at  0.0 mph - / hr 1066 ft 4:38 AM EDT Normal
RAWS YELLOW CREEK KY, Middlesboro, KY 65 °F - 64 °F 97% North  at  0 mph 0.00 in / hr 1089 ft 3:26 AM EDT MADIS

Show More Stations Show Fewer Stations